createdAt,value
2022-10-05T00:02:18.737Z,93.20
2022-10-05T00:04:47.377Z,93.30
2022-10-05T00:07:17.095Z,93.40
2022-10-05T00:09:46.437Z,93.40
2022-10-05T00:12:16.910Z,93.60
2022-10-05T00:14:46.193Z,93.70
2022-10-05T00:17:16.947Z,93.70
2022-10-05T00:19:46.740Z,93.70
2022-10-05T00:22:17.127Z,93.80
2022-10-05T00:24:45.910Z,93.90
2022-10-05T00:27:18.938Z,94.10
2022-10-05T00:29:47.907Z,94.20
2022-10-05T00:32:16.522Z,94.30
2022-10-05T00:34:45.347Z,94.60
2022-10-05T00:37:15.191Z,94.30
2022-10-05T00:39:43.906Z,94.30
2022-10-05T00:42:22.900Z,94.30
2022-10-05T00:44:53.572Z,94.30
2022-10-05T00:47:36.004Z,94.30
2022-10-05T00:50:18.067Z,94.30
2022-10-05T00:52:51.569Z,94.30
2022-10-05T00:55:27.724Z,94.40
2022-10-05T00:58:04.712Z,94.60
2022-10-05T01:00:36.062Z,94.60
2022-10-05T01:03:10.172Z,94.70
2022-10-05T01:05:44.634Z,94.60
2022-10-05T01:08:20.739Z,94.60
2022-10-05T01:10:52.994Z,94.60
2022-10-05T01:13:26.448Z,94.40
2022-10-05T01:15:58.244Z,94.30
2022-10-05T01:18:29.582Z,94.20
2022-10-05T01:21:01.162Z,94.10
2022-10-05T01:23:47.619Z,94.10
2022-10-05T01:26:24.191Z,94.00
2022-10-05T01:28:57.394Z,94.00
2022-10-05T01:31:27.652Z,94.30
2022-10-05T01:33:58.687Z,94.00
2022-10-05T01:36:30.896Z,94.10
2022-10-05T01:39:01.837Z,94.30
2022-10-05T01:41:34.050Z,94.30
2022-10-05T01:44:06.997Z,94.30
2022-10-05T01:46:37.790Z,94.40
2022-10-05T01:49:34.475Z,94.50
2022-10-05T01:52:09.427Z,94.50
2022-10-05T01:54:45.457Z,94.50
2022-10-05T01:57:17.775Z,94.60
2022-10-05T01:59:54.571Z,94.60
2022-10-05T02:02:24.589Z,94.60
2022-10-05T02:05:12.684Z,94.60
2022-10-05T02:07:42.943Z,94.60
2022-10-05T02:10:16.107Z,94.70
2022-10-05T02:12:46.117Z,94.60
2022-10-05T02:15:19.565Z,94.60
2022-10-05T02:17:49.813Z,94.60
2022-10-05T02:20:20.934Z,94.70
2022-10-05T02:22:51.112Z,94.60
2022-10-05T02:25:21.628Z,94.70
2022-10-05T02:27:53.195Z,94.70
2022-10-05T02:30:23.468Z,94.80
2022-10-05T02:32:56.132Z,94.80
2022-10-05T02:35:24.922Z,94.80
2022-10-05T02:37:58.020Z,94.80
2022-10-05T02:40:32.720Z,94.90
2022-10-05T02:43:04.520Z,94.90
2022-10-05T02:45:42.151Z,94.90
2022-10-05T02:48:15.739Z,94.80
2022-10-05T02:50:49.447Z,94.90
2022-10-05T02:53:39.203Z,94.90
2022-10-05T02:56:12.477Z,94.90
2022-10-05T02:58:46.496Z,95.00
2022-10-05T03:01:19.988Z,95.10
2022-10-05T03:03:54.944Z,95.10
2022-10-05T03:06:27.042Z,95.00
2022-10-05T03:09:01.394Z,95.10
2022-10-05T03:11:34.266Z,95.00
2022-10-05T03:14:05.860Z,94.90
2022-10-05T03:16:45.526Z,94.90
2022-10-05T03:19:22.790Z,95.00
2022-10-05T03:21:58.087Z,95.10
2022-10-05T03:24:38.548Z,95.30
2022-10-05T03:27:13.072Z,95.50
2022-10-05T03:29:45.502Z,95.70
2022-10-05T03:32:19.991Z,95.70
2022-10-05T03:34:52.641Z,95.80
2022-10-05T03:37:24.364Z,95.90
2022-10-05T03:39:55.926Z,96.00
2022-10-05T03:42:28.122Z,96.00
2022-10-05T03:44:58.647Z,96.10
2022-10-05T03:47:31.580Z,96.20
2022-10-05T03:50:18.631Z,96.30
2022-10-05T03:52:49.181Z,96.30
2022-10-05T03:55:21.969Z,96.40
2022-10-05T03:57:51.524Z,96.50
2022-10-05T04:00:23.346Z,96.70
2022-10-05T04:03:03.482Z,96.80
2022-10-05T04:05:34.831Z,97.00
2022-10-05T04:08:06.422Z,97.10
2022-10-05T04:10:40.635Z,97.20
2022-10-05T04:13:30.024Z,97.20
2022-10-05T04:16:01.563Z,97.30
2022-10-05T04:18:33.949Z,97.30
2022-10-05T04:21:06.856Z,97.30
2022-10-05T04:23:41.230Z,97.40
2022-10-05T04:26:12.534Z,97.40
2022-10-05T04:28:45.038Z,97.30
2022-10-05T04:31:16.872Z,97.10
2022-10-05T04:33:50.285Z,97.10
2022-10-05T04:36:23.675Z,97.20
2022-10-05T04:38:58.276Z,97.00
2022-10-05T04:41:33.436Z,97.10
2022-10-05T04:44:11.849Z,97.10
2022-10-05T04:46:51.044Z,97.20
2022-10-05T04:49:33.077Z,97.20
2022-10-05T04:52:04.188Z,97.10
2022-10-05T04:54:44.612Z,97.20
2022-10-05T04:57:15.302Z,97.30
2022-10-05T04:59:59.144Z,97.40
2022-10-05T05:02:30.657Z,97.50
2022-10-05T05:05:08.796Z,97.50
2022-10-05T05:07:42.429Z,97.50
2022-10-05T05:10:41.918Z,97.60
2022-10-05T05:13:17.508Z,97.70
2022-10-05T05:15:48.999Z,97.80
2022-10-05T05:18:36.065Z,97.90
2022-10-05T05:21:09.870Z,98.00
2022-10-05T05:23:41.402Z,98.40
2022-10-05T05:26:16.299Z,98.20
2022-10-05T05:28:49.295Z,98.30
2022-10-05T05:31:21.777Z,98.40
2022-10-05T05:33:56.940Z,98.50
2022-10-05T05:36:50.106Z,98.60
2022-10-05T05:39:25.026Z,98.60
2022-10-05T05:42:00.459Z,98.70
2022-10-05T05:44:38.418Z,98.70
2022-10-05T05:47:14.467Z,98.80
2022-10-05T05:49:51.190Z,98.80
2022-10-05T05:52:25.382Z,98.90
2022-10-05T05:54:56.216Z,98.90
2022-10-05T05:57:27.474Z,99.00
2022-10-05T06:00:01.989Z,98.90
2022-10-05T06:02:33.298Z,98.90
2022-10-05T06:05:04.531Z,99.00
2022-10-05T06:07:36.997Z,99.00
2022-10-05T06:10:12.641Z,99.20
2022-10-05T06:12:49.420Z,99.30
2022-10-05T06:15:21.678Z,99.40
2022-10-05T06:17:52.923Z,99.50
2022-10-05T06:20:28.817Z,99.50
2022-10-05T06:23:01.194Z,99.40
2022-10-05T06:25:34.979Z,99.30
2022-10-05T06:28:04.746Z,99.10
2022-10-05T06:30:38.992Z,99.00
2022-10-05T06:33:16.366Z,98.90
2022-10-05T06:35:53.881Z,98.90
2022-10-05T06:38:32.833Z,98.80
2022-10-05T06:41:09.458Z,98.70
2022-10-05T06:43:48.064Z,98.50
2022-10-05T06:46:37.273Z,98.30
2022-10-05T06:49:20.888Z,98.00
2022-10-05T06:52:14.704Z,97.50
2022-10-05T06:54:53.440Z,97.20
2022-10-05T06:57:41.126Z,96.80
2022-10-05T07:00:17.521Z,96.40
2022-10-05T07:03:06.579Z,96.10
2022-10-05T07:05:40.954Z,95.50
2022-10-05T07:08:12.153Z,94.90
2022-10-05T07:10:48.238Z,94.00
2022-10-05T07:13:25.346Z,93.00
2022-10-05T07:15:58.565Z,92.30
2022-10-05T07:18:45.638Z,91.70
2022-10-05T07:21:19.101Z,91.30
2022-10-05T07:23:55.481Z,90.70
2022-10-05T07:26:29.189Z,90.00
2022-10-05T07:29:15.073Z,89.00
2022-10-05T07:31:47.212Z,87.60
2022-10-05T07:34:21.272Z,85.70
2022-10-05T07:37:09.677Z,83.90
2022-10-05T07:39:59.523Z,82.40
2022-10-05T07:42:44.573Z,81.30
2022-10-05T07:45:18.679Z,79.90
2022-10-05T07:47:50.249Z,78.10
2022-10-05T07:50:21.537Z,77.30
2022-10-05T07:52:54.237Z,77.30
2022-10-05T07:55:24.017Z,76.30
2022-10-05T07:57:57.648Z,75.60
2022-10-05T08:00:28.862Z,75.00
2022-10-05T08:03:00.634Z,73.20
2022-10-05T08:05:30.602Z,71.80
2022-10-05T08:08:03.528Z,70.40
2022-10-05T08:10:34.772Z,69.60
2022-10-05T08:13:09.258Z,69.50
2022-10-05T08:15:40.287Z,69.40
2022-10-05T08:18:13.659Z,69.50
2022-10-05T08:20:45.336Z,69.40
2022-10-05T08:23:17.412Z,69.40
2022-10-05T08:25:50.067Z,69.00
2022-10-05T08:28:23.538Z,68.60
2022-10-05T08:31:14.970Z,67.70
2022-10-05T08:33:47.834Z,65.90
2022-10-05T08:36:17.229Z,63.40
2022-10-05T08:38:45.884Z,61.10
2022-10-05T08:41:31.968Z,59.90
2022-10-05T08:44:15.294Z,59.00
2022-10-05T08:46:53.241Z,58.30
2022-10-05T08:49:36.438Z,58.00
2022-10-05T08:52:26.265Z,57.60
2022-10-05T08:55:10.035Z,56.90
2022-10-05T08:57:47.854Z,56.50
2022-10-05T09:00:20.063Z,55.40
2022-10-05T09:03:06.389Z,55.10
2022-10-05T09:05:46.738Z,55.00
2022-10-05T09:08:24.315Z,54.70
2022-10-05T09:11:14.011Z,55.00
2022-10-05T09:14:02.356Z,55.20
2022-10-05T09:16:40.282Z,55.10
2022-10-05T09:19:30.243Z,54.30
2022-10-05T09:22:24.409Z,53.70
2022-10-05T09:24:57.442Z,53.10
2022-10-05T09:27:40.566Z,52.60
2022-10-05T09:30:27.655Z,52.90
2022-10-05T09:33:09.580Z,53.20
2022-10-05T09:35:59.013Z,53.10
2022-10-05T09:38:33.501Z,52.80
2022-10-05T09:41:12.642Z,52.90
2022-10-05T09:44:13.610Z,53.10
2022-10-05T09:47:03.720Z,53.20
2022-10-05T09:49:59.162Z,53.70
2022-10-05T09:52:45.350Z,53.70
2022-10-05T09:55:31.416Z,53.00
2022-10-05T09:58:15.410Z,51.90
2022-10-05T10:01:08.821Z,50.80
2022-10-05T10:03:59.399Z,48.30
2022-10-05T10:06:42.953Z,47.20
2022-10-05T10:09:17.641Z,47.20
2022-10-05T10:11:55.946Z,47.20
2022-10-05T10:14:39.344Z,47.40
2022-10-05T10:17:18.355Z,47.10
2022-10-05T10:20:16.464Z,46.90
2022-10-05T10:22:51.564Z,45.80
2022-10-05T10:25:38.598Z,44.80
2022-10-05T10:28:20.028Z,43.30
2022-10-05T10:30:55.348Z,42.60
2022-10-05T10:33:53.797Z,42.40
2022-10-05T10:36:33.336Z,42.40
2022-10-05T10:39:03.770Z,43.30
2022-10-05T10:41:51.045Z,44.00
2022-10-05T10:44:38.382Z,44.00
2022-10-05T10:47:40.255Z,43.70
2022-10-05T10:50:28.449Z,43.30
2022-10-05T10:53:23.975Z,42.80
2022-10-05T10:55:58.278Z,42.70
2022-10-05T10:58:42.414Z,42.50
2022-10-05T11:01:16.590Z,41.70
2022-10-05T11:03:59.393Z,41.30
2022-10-05T11:06:33.426Z,40.20
2022-10-05T11:09:16.747Z,39.80
2022-10-05T11:12:06.548Z,39.20
2022-10-05T11:14:52.004Z,38.50
2022-10-05T11:17:36.288Z,37.30
2022-10-05T11:20:23.702Z,36.90
2022-10-05T11:22:56.157Z,36.70
2022-10-05T11:25:44.532Z,36.70
2022-10-05T11:28:28.533Z,36.80
2022-10-05T11:31:14.786Z,36.30
2022-10-05T11:34:00.768Z,36.30
2022-10-05T11:36:42.197Z,36.50
2022-10-05T11:39:26.496Z,37.00
2022-10-05T11:42:32.860Z,38.00
2022-10-05T11:45:09.346Z,38.60
2022-10-05T11:47:41.805Z,38.80
2022-10-05T11:50:18.167Z,39.00
2022-10-05T11:52:50.055Z,39.00
2022-10-05T11:55:26.261Z,39.20
2022-10-05T11:57:57.307Z,39.30
2022-10-05T12:00:26.893Z,39.80
2022-10-05T12:03:28.548Z,40.50
2022-10-05T12:06:14.132Z,40.80
2022-10-05T12:08:48.923Z,40.50
2022-10-05T12:11:28.254Z,40.80
2022-10-05T12:13:59.282Z,41.70
2022-10-05T12:16:31.795Z,42.10
2022-10-05T12:19:04.999Z,41.70
2022-10-05T12:21:35.192Z,41.60
2022-10-05T12:24:08.900Z,41.60
2022-10-05T12:26:40.750Z,41.70
2022-10-05T12:29:13.767Z,41.80
2022-10-05T12:31:46.585Z,42.30
2022-10-05T12:34:19.602Z,42.80
2022-10-05T12:37:03.993Z,43.30
2022-10-05T12:39:38.526Z,43.90
2022-10-05T12:42:17.451Z,44.10
2022-10-05T12:44:55.705Z,44.30
2022-10-05T12:47:29.310Z,44.70
2022-10-05T12:50:11.478Z,45.00
2022-10-05T12:52:46.686Z,45.30
2022-10-05T12:55:20.439Z,45.80
2022-10-05T12:57:54.901Z,46.30
2022-10-05T13:00:23.685Z,46.70
2022-10-05T13:02:56.430Z,47.30
2022-10-05T13:05:31.347Z,47.70
2022-10-05T13:08:14.781Z,48.40
2022-10-05T13:10:47.501Z,48.90
2022-10-05T13:13:28.836Z,49.30
2022-10-05T13:16:00.578Z,49.70
2022-10-05T13:18:32.234Z,50.00
2022-10-05T13:21:04.794Z,50.40
2022-10-05T13:23:43.040Z,50.50
2022-10-05T13:26:16.154Z,50.70
2022-10-05T13:28:49.717Z,51.00
2022-10-05T13:31:21.148Z,51.20
2022-10-05T13:33:58.382Z,51.40
2022-10-05T13:36:31.602Z,51.70
2022-10-05T13:39:04.789Z,51.90
2022-10-05T13:41:43.979Z,52.10
2022-10-05T13:44:19.349Z,52.50
2022-10-05T13:46:49.737Z,52.90
2022-10-05T13:49:23.090Z,53.00
2022-10-05T13:51:55.025Z,53.30
2022-10-05T13:54:27.246Z,53.50
2022-10-05T13:57:00.269Z,53.70
2022-10-05T13:59:31.481Z,53.80
2022-10-05T14:02:01.342Z,54.10
2022-10-05T14:04:31.669Z,55.00
2022-10-05T14:07:15.534Z,54.40
2022-10-05T14:09:48.944Z,54.70
2022-10-05T14:12:22.280Z,54.80
2022-10-05T14:14:51.924Z,55.00
2022-10-05T14:17:39.412Z,55.20
2022-10-05T14:20:23.357Z,55.30
2022-10-05T14:22:54.633Z,55.60
2022-10-05T14:25:23.382Z,55.90
2022-10-05T14:27:57.651Z,56.10
2022-10-05T14:30:26.876Z,56.30
2022-10-05T14:32:57.340Z,56.50
2022-10-05T14:35:26.729Z,56.70
2022-10-05T14:38:18.826Z,56.70
2022-10-05T14:40:47.373Z,56.50
2022-10-05T14:43:21.709Z,56.60
2022-10-05T14:45:54.184Z,56.60
2022-10-05T14:48:23.151Z,56.50
2022-10-05T14:50:57.075Z,56.70
2022-10-05T14:53:26.480Z,56.90
2022-10-05T14:56:11.724Z,56.90
2022-10-05T14:58:59.262Z,57.10
2022-10-05T15:01:28.518Z,57.20
2022-10-05T15:04:01.230Z,57.30
2022-10-05T15:06:33.075Z,57.80
2022-10-05T15:09:17.058Z,57.20
2022-10-05T15:11:50.663Z,57.30
2022-10-05T15:14:21.724Z,57.50
2022-10-05T15:16:51.726Z,57.60
2022-10-05T15:19:21.365Z,57.70
2022-10-05T15:21:57.483Z,57.70
2022-10-05T15:24:28.211Z,57.70
2022-10-05T15:26:57.931Z,57.50
2022-10-05T15:29:51.302Z,57.50
2022-10-05T15:32:24.215Z,57.70
2022-10-05T15:34:58.687Z,57.60
2022-10-05T15:37:28.927Z,57.70
2022-10-05T15:39:59.589Z,57.90
2022-10-05T15:42:32.545Z,58.10
2022-10-05T15:45:05.665Z,58.30
2022-10-05T15:47:44.838Z,58.40
2022-10-05T15:50:17.276Z,58.40
2022-10-05T15:52:47.584Z,58.70
2022-10-05T15:55:22.387Z,58.80
2022-10-05T15:57:54.863Z,58.90
2022-10-05T16:00:26.654Z,58.90
2022-10-05T16:02:58.339Z,58.90
2022-10-05T16:05:53.301Z,59.10
2022-10-05T16:08:54.392Z,59.10
2022-10-05T16:11:45.141Z,59.00
2022-10-05T16:14:28.673Z,58.90
2022-10-05T16:17:09.972Z,59.00
2022-10-05T16:19:47.086Z,59.00
2022-10-05T16:22:43.628Z,59.10
2022-10-05T16:25:21.634Z,59.20
2022-10-05T16:28:05.668Z,59.20
2022-10-05T16:30:44.765Z,59.30
2022-10-05T16:33:27.318Z,59.40
2022-10-05T16:36:03.897Z,59.60
2022-10-05T16:38:40.912Z,59.80
2022-10-05T16:41:15.057Z,60.00
2022-10-05T16:43:55.300Z,60.20
2022-10-05T16:46:44.732Z,60.20
2022-10-05T16:49:29.195Z,60.40
2022-10-05T16:52:00.694Z,60.40
2022-10-05T16:54:45.438Z,60.70
2022-10-05T16:57:23.345Z,60.80
2022-10-05T17:00:16.093Z,61.10
2022-10-05T17:03:10.375Z,61.20
2022-10-05T17:05:51.528Z,61.40
2022-10-05T17:08:45.650Z,61.60
2022-10-05T17:11:27.453Z,61.90
2022-10-05T17:14:19.219Z,61.90
2022-10-05T17:16:59.232Z,62.10
2022-10-05T17:19:47.838Z,62.00
2022-10-05T17:22:26.859Z,62.10
2022-10-05T17:25:03.612Z,62.20
2022-10-05T17:27:51.105Z,62.20
2022-10-05T17:30:24.764Z,62.10
2022-10-05T17:32:58.791Z,62.20
2022-10-05T17:35:44.377Z,62.20
2022-10-05T17:38:20.571Z,62.20
2022-10-05T17:41:17.131Z,62.20
2022-10-05T17:44:20.590Z,62.10
2022-10-05T17:46:51.311Z,62.00
2022-10-05T17:49:41.911Z,62.30
2022-10-05T17:52:40.926Z,62.30
2022-10-05T17:55:26.970Z,62.10
2022-10-05T17:57:59.883Z,62.10
2022-10-05T18:00:40.972Z,62.20
2022-10-05T18:03:36.848Z,62.20
2022-10-05T18:06:40.487Z,62.00
2022-10-05T18:09:35.054Z,61.80
2022-10-05T18:12:46.719Z,61.70
2022-10-05T18:15:38.557Z,61.50
2022-10-05T18:18:49.042Z,61.60
2022-10-05T18:21:34.368Z,61.50
2022-10-05T18:24:19.594Z,61.30
2022-10-05T18:26:57.481Z,61.40
2022-10-05T18:30:06.626Z,61.60
2022-10-05T18:32:48.462Z,61.80
2022-10-05T18:35:23.050Z,61.90
2022-10-05T18:38:02.835Z,62.00
2022-10-05T18:40:44.019Z,62.10
2022-10-05T18:43:26.737Z,62.20
2022-10-05T18:46:23.968Z,62.30
2022-10-05T18:49:08.294Z,62.60
2022-10-05T18:51:51.669Z,62.70
2022-10-05T18:54:44.641Z,62.80
2022-10-05T18:57:41.959Z,63.00
2022-10-05T19:00:16.588Z,63.00
2022-10-05T19:02:51.893Z,63.10
2022-10-05T19:05:47.509Z,63.30
2022-10-05T19:08:29.320Z,64.20
2022-10-05T19:11:06.215Z,63.50
2022-10-05T19:13:44.418Z,63.70
2022-10-05T19:16:28.618Z,63.80
2022-10-05T19:19:11.231Z,64.00
2022-10-05T19:21:48.342Z,64.10
2022-10-05T19:24:34.013Z,64.40
2022-10-05T19:27:09.545Z,64.50
2022-10-05T19:29:54.067Z,64.70
2022-10-05T19:32:29.882Z,64.90
2022-10-05T19:35:14.519Z,65.10
2022-10-05T19:37:53.529Z,66.20
2022-10-05T19:40:29.400Z,65.50
2022-10-05T19:43:23.529Z,65.70
2022-10-05T19:46:01.882Z,65.90
2022-10-05T19:48:37.890Z,66.00
2022-10-05T19:51:16.143Z,66.10
2022-10-05T19:53:50.259Z,66.40
2022-10-05T19:56:22.384Z,66.70
2022-10-05T19:58:56.553Z,66.80
2022-10-05T20:01:27.798Z,67.00
2022-10-05T20:03:58.145Z,67.10
2022-10-05T20:06:29.646Z,67.30
2022-10-05T20:09:00.403Z,67.40
2022-10-05T20:11:52.034Z,67.60
2022-10-05T20:14:22.661Z,67.70
2022-10-05T20:17:35.970Z,67.80
2022-10-05T20:20:33.043Z,68.00
2022-10-05T20:23:23.619Z,68.10
2022-10-05T20:26:06.517Z,68.20
2022-10-05T20:28:54.308Z,68.40
2022-10-05T20:31:23.138Z,68.40
2022-10-05T20:33:52.151Z,68.70
2022-10-05T20:36:20.840Z,68.80
2022-10-05T20:38:51.048Z,69.00
2022-10-05T20:41:38.744Z,69.20
2022-10-05T20:44:07.954Z,69.20
2022-10-05T20:46:36.904Z,69.40
2022-10-05T20:49:08.565Z,69.60
2022-10-05T20:51:37.713Z,69.80
2022-10-05T20:54:09.079Z,70.10
2022-10-05T20:56:37.753Z,70.30
2022-10-05T20:59:06.887Z,70.50
2022-10-05T21:01:35.526Z,70.70
2022-10-05T21:04:08.903Z,70.80
2022-10-05T21:06:37.734Z,71.00
2022-10-05T21:09:11.525Z,71.20
2022-10-05T21:11:40.933Z,71.40
2022-10-05T21:14:10.254Z,71.50
2022-10-05T21:16:41.102Z,71.70
2022-10-05T21:19:10.855Z,71.90
2022-10-05T21:21:40.303Z,72.00
2022-10-05T21:24:11.506Z,72.20
2022-10-05T21:26:41.935Z,72.30
2022-10-05T21:29:12.966Z,72.40
2022-10-05T21:31:42.294Z,72.60
2022-10-05T21:34:11.494Z,72.80
2022-10-05T21:36:40.398Z,72.90
2022-10-05T21:39:11.071Z,73.00
2022-10-05T21:41:39.904Z,73.10
2022-10-05T21:44:08.697Z,73.20
2022-10-05T21:46:38.968Z,73.30
2022-10-05T21:49:09.648Z,73.40
2022-10-05T21:51:39.649Z,73.60
2022-10-05T21:54:12.696Z,73.70
2022-10-05T21:56:44.351Z,73.80
2022-10-05T21:59:16.592Z,73.90
2022-10-05T22:01:46.207Z,74.10
2022-10-05T22:04:15.204Z,74.20
2022-10-05T22:06:44.065Z,74.30
2022-10-05T22:09:14.282Z,74.40
2022-10-05T22:11:43.483Z,74.50
2022-10-05T22:14:15.748Z,74.60
2022-10-05T22:16:46.156Z,74.80
2022-10-05T22:19:19.534Z,75.00
2022-10-05T22:21:48.814Z,75.10
2022-10-05T22:24:19.058Z,75.30
2022-10-05T22:26:49.381Z,75.50
2022-10-05T22:29:19.746Z,75.70
2022-10-05T22:31:49.425Z,75.80
2022-10-05T22:34:19.299Z,76.00
2022-10-05T22:36:48.761Z,76.70
2022-10-05T22:39:19.478Z,76.20
2022-10-05T22:41:48.861Z,76.30
2022-10-05T22:44:17.721Z,76.50
2022-10-05T22:46:46.476Z,76.60
2022-10-05T22:49:16.938Z,76.70
2022-10-05T22:51:45.934Z,76.90
2022-10-05T22:54:14.617Z,77.00
2022-10-05T22:56:45.116Z,77.20
2022-10-05T22:59:14.077Z,77.30
2022-10-05T23:01:42.752Z,77.30
2022-10-05T23:04:12.114Z,77.50
2022-10-05T23:06:40.957Z,77.60
2022-10-05T23:09:09.581Z,77.90
2022-10-05T23:11:38.360Z,78.00
2022-10-05T23:14:08.770Z,78.10
2022-10-05T23:16:37.671Z,78.10
2022-10-05T23:19:06.661Z,78.20
2022-10-05T23:21:35.383Z,78.30
2022-10-05T23:24:14.434Z,78.40
2022-10-05T23:27:02.930Z,78.50
2022-10-05T23:29:42.680Z,78.60
2022-10-05T23:32:21.627Z,78.80
2022-10-05T23:34:59.052Z,79.00
2022-10-05T23:37:28.201Z,79.20
2022-10-05T23:39:56.895Z,79.50
2022-10-05T23:42:26.034Z,79.60
2022-10-05T23:45:15.056Z,79.80
2022-10-05T23:47:43.829Z,79.90
2022-10-05T23:50:12.566Z,80.10
2022-10-05T23:52:41.195Z,80.40
2022-10-05T23:55:10.766Z,80.50
2022-10-05T23:57:40.442Z,80.60
